Aviation Digital Data Service (ADDS)

Output produced by METARs form (1248 UTC 19 January 2019)
found at http://www.aviationweather.gov/metar/data/
 
METAR text: OMSJ 191200Z 30016KT 4500 DU SCT030 21/11 Q1016
Conditions at: OMSJ (SHARJAH INTL ARP, AE) observed 1200 UTC 19 January 2019
Temperature: 21.0°C (70°F)
Dewpoint: 11.0°C (52°F) [RH = 53%]
Pressure (altimeter): 30.00 inches Hg (1016.0 mb)
Winds: from the WNW (300 degrees) at 18 MPH (16 knots; 8.2 m/s)
Visibility: 2.80 miles (4.51 km)
Ceiling: at least 12,000 feet AGL
Clouds: scattered clouds at 3000 feet AGL
Weather: DU  (widespread dust)

METAR text: OMSJ 191100Z 26014KT 4500 DU SCT030 21/11 Q1016
Conditions at: OMSJ (SHARJAH INTL ARP, AE) observed 1100 UTC 19 January 2019
Temperature: 21.0°C (70°F)
Dewpoint: 11.0°C (52°F) [RH = 53%]
Pressure (altimeter): 30.00 inches Hg (1016.0 mb)
Winds: from the W (260 degrees) at 16 MPH (14 knots; 7.2 m/s)
Visibility: 2.80 miles (4.51 km)
Ceiling: at least 12,000 feet AGL
Clouds: scattered clouds at 3000 feet AGL
Weather: DU  (widespread dust)

METAR text: OMSJ 191000Z 27015KT 7000 SCT030 21/12 Q1017
Conditions at: OMSJ (SHARJAH INTL ARP, AE) observed 1000 UTC 19 January 2019
Temperature: 21.0°C (70°F)
Dewpoint: 12.0°C (54°F) [RH = 56%]
Pressure (altimeter): 30.03 inches Hg (1017.0 mb)
Winds: from the W (270 degrees) at 17 MPH (15 knots; 7.7 m/s)
Visibility: 4 miles ( 7 km)
Ceiling: at least 12,000 feet AGL
Clouds: scattered clouds at 3000 feet AGL
Weather: no significant weather observed at this time

METAR text: OMSJ 190900Z 27016KT 7000 BKN040 21/10 Q1018
Conditions at: OMSJ (SHARJAH INTL ARP, AE) observed 0900 UTC 19 January 2019
Temperature: 21.0°C (70°F)
Dewpoint: 10.0°C (50°F) [RH = 49%]
Pressure (altimeter): 30.06 inches Hg (1018.0 mb)
Winds: from the W (270 degrees) at 18 MPH (16 knots; 8.2 m/s)
Visibility: 4 miles ( 7 km)
Ceiling: 4000 feet AGL
Clouds: broken clouds at 4000 feet AGL
Weather: no significant weather observed at this time

METAR text: OMSJ 190800Z 27015KT 7000 BKN040 22/11 Q1018
Conditions at: OMSJ (SHARJAH INTL ARP, AE) observed 0800 UTC 19 January 2019
Temperature: 22.0°C (72°F)
Dewpoint: 11.0°C (52°F) [RH = 50%]
Pressure (altimeter): 30.06 inches Hg (1018.0 mb)
Winds: from the W (270 degrees) at 17 MPH (15 knots; 7.7 m/s)
Visibility: 4 miles ( 7 km)
Ceiling: 4000 feet AGL
Clouds: broken clouds at 4000 feet AGL
Weather: no significant weather observed at this time

METAR text: OMSJ 190700Z 25013KT 6000 BKN040 22/11 Q1019
Conditions at: OMSJ (SHARJAH INTL ARP, AE) observed 0700 UTC 19 January 2019
Temperature: 22.0°C (72°F)
Dewpoint: 11.0°C (52°F) [RH = 50%]
Pressure (altimeter): 30.09 inches Hg (1019.0 mb)
Winds: from the WSW (250 degrees) at 15 MPH (13 knots; 6.7 m/s)
Visibility: 4 miles ( 6 km)
Ceiling: 4000 feet AGL
Clouds: broken clouds at 4000 feet AGL
Weather: no significant weather observed at this time

METAR text: OMSJ 190600Z 18006KT 6000 BKN040 20/12 Q1019
Conditions at: OMSJ (SHARJAH INTL ARP, AE) observed 0600 UTC 19 January 2019
Temperature: 20.0°C (68°F)
Dewpoint: 12.0°C (54°F) [RH = 60%]
Pressure (altimeter): 30.09 inches Hg (1019.0 mb)
Winds: from the S (180 degrees) at 7 MPH (6 knots; 3.1 m/s)
Visibility: 4 miles ( 6 km)
Ceiling: 4000 feet AGL
Clouds: broken clouds at 4000 feet AGL
Weather: no significant weather observed at this time

METAR text: OMSJ 190500Z 18008KT 6000 BKN040 18/12 Q1019
Conditions at: OMSJ (SHARJAH INTL ARP, AE) observed 0500 UTC 19 January 2019
Temperature: 18.0°C (64°F)
Dewpoint: 12.0°C (54°F) [RH = 68%]
Pressure (altimeter): 30.09 inches Hg (1019.0 mb)
Winds: from the S (180 degrees) at 9 MPH (8 knots; 4.1 m/s)
Visibility: 4 miles ( 6 km)
Ceiling: 4000 feet AGL
Clouds: broken clouds at 4000 feet AGL
Weather: no significant weather observed at this time

METAR text: OMSJ 190400Z 17008KT 6000 BKN040 17/11 Q1018
Conditions at: OMSJ (SHARJAH INTL ARP, AE) observed 0400 UTC 19 January 2019
Temperature: 17.0°C (63°F)
Dewpoint: 11.0°C (52°F) [RH = 68%]
Pressure (altimeter): 30.06 inches Hg (1018.0 mb)
Winds: from the S (170 degrees) at 9 MPH (8 knots; 4.1 m/s)
Visibility: 4 miles ( 6 km)
Ceiling: 4000 feet AGL
Clouds: broken clouds at 4000 feet AGL
Weather: no significant weather observed at this time

METAR text: OMSJ 190300Z 16009KT 6000 BKN040 17/11 Q1017
Conditions at: OMSJ (SHARJAH INTL ARP, AE) observed 0300 UTC 19 January 2019
Temperature: 17.0°C (63°F)
Dewpoint: 11.0°C (52°F) [RH = 68%]
Pressure (altimeter): 30.03 inches Hg (1017.0 mb)
Winds: from the SSE (160 degrees) at 10 MPH (9 knots; 4.6 m/s)
Visibility: 4 miles ( 6 km)
Ceiling: 4000 feet AGL
Clouds: broken clouds at 4000 feet AGL
Weather: no significant weather observed at this time

METAR text: OMSJ 190200Z 17007KT 8000 FEW040 16/11 Q1017
Conditions at: OMSJ (SHARJAH INTL ARP, AE) observed 0200 UTC 19 January 2019
Temperature: 16.0°C (61°F)
Dewpoint: 11.0°C (52°F) [RH = 72%]
Pressure (altimeter): 30.03 inches Hg (1017.0 mb)
Winds: from the S (170 degrees) at 8 MPH (7 knots; 3.6 m/s)
Visibility: 5 miles ( 8 km)
Ceiling: at least 12,000 feet AGL
Clouds: few clouds at 4000 feet AGL
Weather: no significant weather observed at this time

METAR text: OMSJ 190100Z 17006KT 8000 SCT040 17/11 Q1016
Conditions at: OMSJ (SHARJAH INTL ARP, AE) observed 0100 UTC 19 January 2019
Temperature: 17.0°C (63°F)
Dewpoint: 11.0°C (52°F) [RH = 68%]
Pressure (altimeter): 30.00 inches Hg (1016.0 mb)
Winds: from the S (170 degrees) at 7 MPH (6 knots; 3.1 m/s)
Visibility: 5 miles ( 8 km)
Ceiling: at least 12,000 feet AGL
Clouds: scattered clouds at 4000 feet AGL
Weather: no significant weather observed at this time

METAR text: OMSJ 190000Z 18008KT 8000 SCT040 17/11 Q1016
Conditions at: OMSJ (SHARJAH INTL ARP, AE) observed 0000 UTC 19 January 2019
Temperature: 17.0°C (63°F)
Dewpoint: 11.0°C (52°F) [RH = 68%]
Pressure (altimeter): 30.00 inches Hg (1016.0 mb)
Winds: from the S (180 degrees) at 9 MPH (8 knots; 4.1 m/s)
Visibility: 5 miles ( 8 km)
Ceiling: at least 12,000 feet AGL
Clouds: scattered clouds at 4000 feet AGL
Weather: no significant weather observed at this time

METAR text: OMSJ 182300Z 18007KT 9999 SCT035 17/11 Q1016
Conditions at: OMSJ (SHARJAH INTL ARP, AE) observed 2300 UTC 18 January 2019
Temperature: 17.0°C (63°F)
Dewpoint: 11.0°C (52°F) [RH = 68%]
Pressure (altimeter): 30.00 inches Hg (1016.0 mb)
Winds: from the S (180 degrees) at 8 MPH (7 knots; 3.6 m/s)
Visibility: 6 or more miles (10+ km)
Ceiling: at least 12,000 feet AGL
Clouds: scattered clouds at 3500 feet AGL
Weather: no significant weather observed at this time

METAR text: OMSJ 182200Z 18005KT 9999 SCT035 18/11 Q1016
Conditions at: OMSJ (SHARJAH INTL ARP, AE) observed 2200 UTC 18 January 2019
Temperature: 18.0°C (64°F)
Dewpoint: 11.0°C (52°F) [RH = 64%]
Pressure (altimeter): 30.00 inches Hg (1016.0 mb)
Winds: from the S (180 degrees) at 6 MPH (5 knots; 2.6 m/s)
Visibility: 6 or more miles (10+ km)
Ceiling: at least 12,000 feet AGL
Clouds: scattered clouds at 3500 feet AGL
Weather: no significant weather observed at this time

METAR text: OMSJ 182100Z 17006KT 9999 SCT035 18/11 Q1017
Conditions at: OMSJ (SHARJAH INTL ARP, AE) observed 2100 UTC 18 January 2019
Temperature: 18.0°C (64°F)
Dewpoint: 11.0°C (52°F) [RH = 64%]
Pressure (altimeter): 30.03 inches Hg (1017.0 mb)
Winds: from the S (170 degrees) at 7 MPH (6 knots; 3.1 m/s)
Visibility: 6 or more miles (10+ km)
Ceiling: at least 12,000 feet AGL
Clouds: scattered clouds at 3500 feet AGL
Weather: no significant weather observed at this time

METAR text: OMSJ 182000Z 14006KT 9999 SCT035 20/12 Q1017
Conditions at: OMSJ (SHARJAH INTL ARP, AE) observed 2000 UTC 18 January 2019
Temperature: 20.0°C (68°F)
Dewpoint: 12.0°C (54°F) [RH = 60%]
Pressure (altimeter): 30.03 inches Hg (1017.0 mb)
Winds: from the SE (140 degrees) at 7 MPH (6 knots; 3.1 m/s)
Visibility: 6 or more miles (10+ km)
Ceiling: at least 12,000 feet AGL
Clouds: scattered clouds at 3500 feet AGL
Weather: no significant weather observed at this time

METAR text: OMSJ 181900Z 24007KT 9999 SCT035 20/11 Q1017
Conditions at: OMSJ (SHARJAH INTL ARP, AE) observed 1900 UTC 18 January 2019
Temperature: 20.0°C (68°F)
Dewpoint: 11.0°C (52°F) [RH = 56%]
Pressure (altimeter): 30.03 inches Hg (1017.0 mb)
Winds: from the WSW (240 degrees) at 8 MPH (7 knots; 3.6 m/s)
Visibility: 6 or more miles (10+ km)
Ceiling: at least 12,000 feet AGL
Clouds: scattered clouds at 3500 feet AGL
Weather: no significant weather observed at this time

METAR text: OMSJ 181800Z 24007KT 9999 FEW035 20/11 Q1017
Conditions at: OMSJ (SHARJAH INTL ARP, AE) observed 1800 UTC 18 January 2019
Temperature: 20.0°C (68°F)
Dewpoint: 11.0°C (52°F) [RH = 56%]
Pressure (altimeter): 30.03 inches Hg (1017.0 mb)
Winds: from the WSW (240 degrees) at 8 MPH (7 knots; 3.6 m/s)
Visibility: 6 or more miles (10+ km)
Ceiling: at least 12,000 feet AGL
Clouds: few clouds at 3500 feet AGL
Weather: no significant weather observed at this time

METAR text: OMSJ 181700Z 26008KT CAVOK 20/11 Q1017
Conditions at: OMSJ (SHARJAH INTL ARP, AE) observed 1700 UTC 18 January 2019
Temperature: 20.0°C (68°F)
Dewpoint: 11.0°C (52°F) [RH = 56%]
Pressure (altimeter): 30.03 inches Hg (1017.0 mb)
Winds: from the W (260 degrees) at 9 MPH (8 knots; 4.1 m/s)
Visibility: 6 or more miles (10+ km)
Ceiling: ceiling and visibility are OK
Clouds: unknown
Weather: no significant weather observed at this time

METAR text: OMSJ 181600Z 26008KT CAVOK 20/10 Q1017
Conditions at: OMSJ (SHARJAH INTL ARP, AE) observed 1600 UTC 18 January 2019
Temperature: 20.0°C (68°F)
Dewpoint: 10.0°C (50°F) [RH = 53%]
Pressure (altimeter): 30.03 inches Hg (1017.0 mb)
Winds: from the W (260 degrees) at 9 MPH (8 knots; 4.1 m/s)
Visibility: 6 or more miles (10+ km)
Ceiling: ceiling and visibility are OK
Clouds: unknown
Weather: no significant weather observed at this time

METAR text: OMSJ 181500Z 26011KT 9999 FEW030 21/10 Q1017
Conditions at: OMSJ (SHARJAH INTL ARP, AE) observed 1500 UTC 18 January 2019
Temperature: 21.0°C (70°F)
Dewpoint: 10.0°C (50°F) [RH = 49%]
Pressure (altimeter): 30.03 inches Hg (1017.0 mb)
Winds: from the W (260 degrees) at 13 MPH (11 knots; 5.7 m/s)
Visibility: 6 or more miles (10+ km)
Ceiling: at least 12,000 feet AGL
Clouds: few clouds at 3000 feet AGL
Weather: no significant weather observed at this time

METAR text: OMSJ 181400Z 26012KT 9999 FEW030 21/10 Q1016
Conditions at: OMSJ (SHARJAH INTL ARP, AE) observed 1400 UTC 18 January 2019
Temperature: 21.0°C (70°F)
Dewpoint: 10.0°C (50°F) [RH = 49%]
Pressure (altimeter): 30.00 inches Hg (1016.0 mb)
Winds: from the W (260 degrees) at 14 MPH (12 knots; 6.2 m/s)
Visibility: 6 or more miles (10+ km)
Ceiling: at least 12,000 feet AGL
Clouds: few clouds at 3000 feet AGL
Weather: no significant weather observed at this time

METAR text: OMSJ 181300Z 27013KT 9999 FEW040 22/10 Q1016
Conditions at: OMSJ (SHARJAH INTL ARP, AE) observed 1300 UTC 18 January 2019
Temperature: 22.0°C (72°F)
Dewpoint: 10.0°C (50°F) [RH = 46%]
Pressure (altimeter): 30.00 inches Hg (1016.0 mb)
Winds: from the W (270 degrees) at 15 MPH (13 knots; 6.7 m/s)
Visibility: 6 or more miles (10+ km)
Ceiling: at least 12,000 feet AGL
Clouds: few clouds at 4000 feet AGL
Weather: no significant weather observed at this time

METAR text: OMSJ 181200Z 27014KT CAVOK 23/10 Q1016
Conditions at: OMSJ (SHARJAH INTL ARP, AE) observed 1200 UTC 18 January 2019
Temperature: 23.0°C (73°F)
Dewpoint: 10.0°C (50°F) [RH = 44%]
Pressure (altimeter): 30.00 inches Hg (1016.0 mb)
Winds: from the W (270 degrees) at 16 MPH (14 knots; 7.2 m/s)
Visibility: 6 or more miles (10+ km)
Ceiling: ceiling and visibility are OK
Clouds: unknown
Weather: no significant weather observed at this time

METAR text: OMSJ 181100Z 27014KT CAVOK 23/10 Q1016
Conditions at: OMSJ (SHARJAH INTL ARP, AE) observed 1100 UTC 18 January 2019
Temperature: 23.0°C (73°F)
Dewpoint: 10.0°C (50°F) [RH = 44%]
Pressure (altimeter): 30.00 inches Hg (1016.0 mb)
Winds: from the W (270 degrees) at 16 MPH (14 knots; 7.2 m/s)
Visibility: 6 or more miles (10+ km)
Ceiling: ceiling and visibility are OK
Clouds: unknown
Weather: no significant weather observed at this time

METAR text: OMSJ 181000Z 26012KT CAVOK 23/11 Q1016
Conditions at: OMSJ (SHARJAH INTL ARP, AE) observed 1000 UTC 18 January 2019
Temperature: 23.0°C (73°F)
Dewpoint: 11.0°C (52°F) [RH = 47%]
Pressure (altimeter): 30.00 inches Hg (1016.0 mb)
Winds: from the W (260 degrees) at 14 MPH (12 knots; 6.2 m/s)
Visibility: 6 or more miles (10+ km)
Ceiling: ceiling and visibility are OK
Clouds: unknown
Weather: no significant weather observed at this time

METAR text: OMSJ 180900Z 25012KT CAVOK 23/12 Q1017
Conditions at: OMSJ (SHARJAH INTL ARP, AE) observed 0900 UTC 18 January 2019
Temperature: 23.0°C (73°F)
Dewpoint: 12.0°C (54°F) [RH = 50%]
Pressure (altimeter): 30.03 inches Hg (1017.0 mb)
Winds: from the WSW (250 degrees) at 14 MPH (12 knots; 6.2 m/s)
Visibility: 6 or more miles (10+ km)
Ceiling: ceiling and visibility are OK
Clouds: unknown
Weather: no significant weather observed at this time

METAR text: OMSJ 180800Z 27012KT CAVOK 23/12 Q1017
Conditions at: OMSJ (SHARJAH INTL ARP, AE) observed 0800 UTC 18 January 2019
Temperature: 23.0°C (73°F)
Dewpoint: 12.0°C (54°F) [RH = 50%]
Pressure (altimeter): 30.03 inches Hg (1017.0 mb)
Winds: from the W (270 degrees) at 14 MPH (12 knots; 6.2 m/s)
Visibility: 6 or more miles (10+ km)
Ceiling: ceiling and visibility are OK
Clouds: unknown
Weather: no significant weather observed at this time

METAR text: OMSJ 180700Z 26010KT CAVOK 23/12 Q1018
Conditions at: OMSJ (SHARJAH INTL ARP, AE) observed 0700 UTC 18 January 2019
Temperature: 23.0°C (73°F)
Dewpoint: 12.0°C (54°F) [RH = 50%]
Pressure (altimeter): 30.06 inches Hg (1018.0 mb)
Winds: from the W (260 degrees) at 12 MPH (10 knots; 5.1 m/s)
Visibility: 6 or more miles (10+ km)
Ceiling: ceiling and visibility are OK
Clouds: unknown
Weather: no significant weather observed at this time

METAR text: OMSJ 180600Z 25008KT 8000 NSC 21/12 Q1019
Conditions at: OMSJ (SHARJAH INTL ARP, AE) observed 0600 UTC 18 January 2019
Temperature: 21.0°C (70°F)
Dewpoint: 12.0°C (54°F) [RH = 56%]
Pressure (altimeter): 30.09 inches Hg (1019.0 mb)
Winds: from the WSW (250 degrees) at 9 MPH (8 knots; 4.1 m/s)
Visibility: 5 miles ( 8 km)
Ceiling: at least 12,000 feet AGL
Clouds: sky clear below 12,000 feet AGL
Weather: no significant weather observed at this time

METAR text: OMSJ 180500Z 25009KT 8000 NSC 21/13 Q1018
Conditions at: OMSJ (SHARJAH INTL ARP, AE) observed 0500 UTC 18 January 2019
Temperature: 21.0°C (70°F)
Dewpoint: 13.0°C (55°F) [RH = 60%]
Pressure (altimeter): 30.06 inches Hg (1018.0 mb)
Winds: from the WSW (250 degrees) at 10 MPH (9 knots; 4.6 m/s)
Visibility: 5 miles ( 8 km)
Ceiling: at least 12,000 feet AGL
Clouds: sky clear below 12,000 feet AGL
Weather: no significant weather observed at this time

METAR text: OMSJ 180400Z 25007KT 8000 NSC 20/14 Q1017
Conditions at: OMSJ (SHARJAH INTL ARP, AE) observed 0400 UTC 18 January 2019
Temperature: 20.0°C (68°F)
Dewpoint: 14.0°C (57°F) [RH = 68%]
Pressure (altimeter): 30.03 inches Hg (1017.0 mb)
Winds: from the WSW (250 degrees) at 8 MPH (7 knots; 3.6 m/s)
Visibility: 5 miles ( 8 km)
Ceiling: at least 12,000 feet AGL
Clouds: sky clear below 12,000 feet AGL
Weather: no significant weather observed at this time

METAR text: OMSJ 180300Z 25007KT 8000 NSC 20/15 Q1016
Conditions at: OMSJ (SHARJAH INTL ARP, AE) observed 0300 UTC 18 January 2019
Temperature: 20.0°C (68°F)
Dewpoint: 15.0°C (59°F) [RH = 73%]
Pressure (altimeter): 30.00 inches Hg (1016.0 mb)
Winds: from the WSW (250 degrees) at 8 MPH (7 knots; 3.6 m/s)
Visibility: 5 miles ( 8 km)
Ceiling: at least 12,000 feet AGL
Clouds: sky clear below 12,000 feet AGL
Weather: no significant weather observed at this time

METAR text: OMSJ 180200Z 25005KT 8000 NSC 21/14 Q1015
Conditions at: OMSJ (SHARJAH INTL ARP, AE) observed 0200 UTC 18 January 2019
Temperature: 21.0°C (70°F)
Dewpoint: 14.0°C (57°F) [RH = 64%]
Pressure (altimeter): 29.97 inches Hg (1015.0 mb)
Winds: from the WSW (250 degrees) at 6 MPH (5 knots; 2.6 m/s)
Visibility: 5 miles ( 8 km)
Ceiling: at least 12,000 feet AGL
Clouds: sky clear below 12,000 feet AGL
Weather: no significant weather observed at this time

METAR text: OMSJ 180100Z 27009KT 7000 FEW030 21/16 Q1015
Conditions at: OMSJ (SHARJAH INTL ARP, AE) observed 0100 UTC 18 January 2019
Temperature: 21.0°C (70°F)
Dewpoint: 16.0°C (61°F) [RH = 73%]
Pressure (altimeter): 29.97 inches Hg (1015.0 mb)
Winds: from the W (270 degrees) at 10 MPH (9 knots; 4.6 m/s)
Visibility: 4 miles ( 7 km)
Ceiling: at least 12,000 feet AGL
Clouds: few clouds at 3000 feet AGL
Weather: no significant weather observed at this time

Forecast for: OMSJ (SHARJAH INTL ARP, AE)
Text: TAF OMSJ 191051Z 1912/2018 28016KT 5000 DU SCT030
Forecast period: 1200 to 1500 UTC 19 January 2019
Forecast type: FROM: standard forecast or significant change
Winds: from the W (280 degrees) at 18 MPH (16 knots; 8.2 m/s)
Visibility: 3 miles (5 km)
Ceiling: at least 12,000 feet AGL
Clouds: scattered clouds at 3000 feet AGL
Weather: DU  (widespread dust)
Text: BECMG 1915/1917 7000 NSW
Forecast period: 1500 UTC 19 January 2019 to 1800 UTC 20 January 2019
Forecast type: BECOMING: Conditions expected to become as follows by 1700 UTC 19 January 2019
Winds: from the W (280 degrees) at 18 MPH (16 knots; 8.2 m/s)
Visibility: 4 miles (7 km)
Ceiling: at least 12,000 feet AGL
Clouds: scattered clouds at 3000 feet AGL
Weather: NSW  (no significant weather)
Text: PROB40 1918/2005 21007KT
Forecast period: 1800 UTC 19 January 2019 to 0500 UTC 20 January 2019
Forecast type: PROBABLE: 40 percent likelihood of the following during this time
Winds: from the SSW (210 degrees) at 8 MPH (7 knots; 3.6 m/s)
Visibility: missing
Ceiling: unknown
Clouds: missing
Weather: no significant weather forecast for this period
Text: PROB30 2002/2005 4000 DU
Forecast period: 0200 to 0500 UTC 20 January 2019
Forecast type: PROBABLE: 30 percent likelihood of the following during this time
Visibility: 2.49 miles (4.01 km)
Ceiling: unknown
Clouds: missing
Weather: DU  (widespread dust)